sensor_id;sensor_type;location;lat;lon;timestamp;pressure;altitude;pressure_sealevel;temperature;humidity
74065;BME280;62421;51.412;5.432;2023-06-10T00:01:50;101212.44;;;21.81;59.56
74065;BME280;62421;51.412;5.432;2023-06-10T00:04:16;101216.56;;;21.77;59.57
74065;BME280;62421;51.412;5.432;2023-06-10T00:06:45;101216.03;;;21.74;60.61
74065;BME280;62421;51.412;5.432;2023-06-10T00:09:14;101220.13;;;21.70;60.71
74065;BME280;62421;51.412;5.432;2023-06-10T00:11:41;101218.75;;;21.57;62.48
74065;BME280;62421;51.412;5.432;2023-06-10T00:14:07;101222.00;;;21.53;62.26
74065;BME280;62421;51.412;5.432;2023-06-10T00:16:33;101223.88;;;21.52;60.78
74065;BME280;62421;51.412;5.432;2023-06-10T00:19:00;101219.09;;;21.46;62.14
74065;BME280;62421;51.412;5.432;2023-06-10T00:21:29;101220.78;;;21.39;61.61
74065;BME280;62421;51.412;5.432;2023-06-10T00:23:55;101219.06;;;21.38;61.33
74065;BME280;62421;51.412;5.432;2023-06-10T00:26:22;101223.16;;;21.34;61.62
74065;BME280;62421;51.412;5.432;2023-06-10T00:28:48;101222.31;;;21.33;62.29
74065;BME280;62421;51.412;5.432;2023-06-10T00:31:13;101219.22;;;21.28;62.42
74065;BME280;62421;51.412;5.432;2023-06-10T00:33:38;101222.78;;;21.20;62.64
74065;BME280;62421;51.412;5.432;2023-06-10T00:36:04;101221.25;;;21.18;61.74
74065;BME280;62421;51.412;5.432;2023-06-10T00:38:29;101221.25;;;21.18;60.95
74065;BME280;62421;51.412;5.432;2023-06-10T00:40:55;101232.69;;;21.13;61.99
74065;BME280;62421;51.412;5.432;2023-06-10T00:43:21;101225.84;;;21.09;61.61
74065;BME280;62421;51.412;5.432;2023-06-10T00:45:46;101233.34;;;21.07;62.19
74065;BME280;62421;51.412;5.432;2023-06-10T00:48:12;101226.19;;;21.06;62.63
74065;BME280;62421;51.412;5.432;2023-06-10T00:50:37;101231.97;;;21.03;62.66
74065;BME280;62421;51.412;5.432;2023-06-10T00:53:06;101226.50;;;21.03;61.85
74065;BME280;62421;51.412;5.432;2023-06-10T00:55:32;101228.41;;;21.02;61.81
74065;BME280;62421;51.412;5.432;2023-06-10T00:57:58;101230.44;;;21.00;61.75
74065;BME280;62421;51.412;5.432;2023-06-10T01:00:24;101228.06;;;20.97;62.07
74065;BME280;62421;51.412;5.432;2023-06-10T01:02:49;101219.88;;;20.97;61.57
74065;BME280;62421;51.412;5.432;2023-06-10T01:05:17;101215.25;;;20.98;62.40
74065;BME280;62421;51.412;5.432;2023-06-10T01:08:01;101235.56;;;20.95;62.79
74065;BME280;62421;51.412;5.432;2023-06-10T01:10:33;101228.88;;;20.90;63.71
74065;BME280;62421;51.412;5.432;2023-06-10T01:13:01;101232.59;;;20.89;61.64
74065;BME280;62421;51.412;5.432;2023-06-10T01:15:34;101224.75;;;20.85;62.86
74065;BME280;62421;51.412;5.432;2023-06-10T01:18:03;101225.94;;;20.83;62.55
74065;BME280;62421;51.412;5.432;2023-06-10T01:20:30;101231.03;;;20.78;61.87
74065;BME280;62421;51.412;5.432;2023-06-10T01:22:58;101229.84;;;20.72;62.77
74065;BME280;62421;51.412;5.432;2023-06-10T01:25:24;101230.34;;;20.68;62.31
74065;BME280;62421;51.412;5.432;2023-06-10T01:30:27;101230.38;;;20.50;62.97
74065;BME280;62421;51.412;5.432;2023-06-10T01:32:55;101228.31;;;20.43;64.17
74065;BME280;62421;51.412;5.432;2023-06-10T01:35:21;101230.31;;;20.33;63.52
74065;BME280;62421;51.412;5.432;2023-06-10T01:37:50;101229.41;;;20.24;64.20
74065;BME280;62421;51.412;5.432;2023-06-10T01:40:18;101226.13;;;20.21;64.03
74065;BME280;62421;51.412;5.432;2023-06-10T01:42:44;101231.94;;;20.18;63.81
74065;BME280;62421;51.412;5.432;2023-06-10T01:45:10;101228.81;;;20.13;65.45
74065;BME280;62421;51.412;5.432;2023-06-10T01:47:35;101233.06;;;20.07;64.65
74065;BME280;62421;51.412;5.432;2023-06-10T01:50:00;101229.94;;;20.02;64.36
74065;BME280;62421;51.412;5.432;2023-06-10T01:52:26;101224.97;;;19.97;64.59
74065;BME280;62421;51.412;5.432;2023-06-10T01:54:51;101226.28;;;19.93;65.47
74065;BME280;62421;51.412;5.432;2023-06-10T01:57:17;101224.19;;;19.87;66.89
74065;BME280;62421;51.412;5.432;2023-06-10T01:59:42;101237.47;;;19.82;64.83
74065;BME280;62421;51.412;5.432;2023-06-10T02:02:09;101230.47;;;19.79;65.05
74065;BME280;62421;51.412;5.432;2023-06-10T02:04:34;101232.63;;;19.76;65.15
74065;BME280;62421;51.412;5.432;2023-06-10T02:07:00;101236.53;;;19.73;64.87
74065;BME280;62421;51.412;5.432;2023-06-10T02:09:29;101237.00;;;19.69;65.75
74065;BME280;62421;51.412;5.432;2023-06-10T02:11:54;101234.75;;;19.64;66.53
74065;BME280;62421;51.412;5.432;2023-06-10T02:14:19;101234.88;;;19.62;65.12
74065;BME280;62421;51.412;5.432;2023-06-10T02:16:45;101237.59;;;19.62;65.34
74065;BME280;62421;51.412;5.432;2023-06-10T02:19:12;101235.38;;;19.58;66.49
74065;BME280;62421;51.412;5.432;2023-06-10T02:21:37;101233.25;;;19.52;65.51
74065;BME280;62421;51.412;5.432;2023-06-10T02:24:04;101243.44;;;19.50;65.56
74065;BME280;62421;51.412;5.432;2023-06-10T02:26:29;101242.91;;;19.46;65.58
74065;BME280;62421;51.412;5.432;2023-06-10T02:28:54;101245.09;;;19.42;66.13
74065;BME280;62421;51.412;5.432;2023-06-10T02:31:20;101250.97;;;19.38;66.19
74065;BME280;62421;51.412;5.432;2023-06-10T02:33:45;101251.31;;;19.35;66.18
74065;BME280;62421;51.412;5.432;2023-06-10T02:36:11;101246.81;;;19.26;68.09
74065;BME280;62421;51.412;5.432;2023-06-10T02:38:39;101242.53;;;19.23;66.79
74065;BME280;62421;51.412;5.432;2023-06-10T02:41:05;101243.97;;;19.17;67.44
74065;BME280;62421;51.412;5.432;2023-06-10T02:43:31;101247.00;;;19.14;67.03
74065;BME280;62421;51.412;5.432;2023-06-10T02:45:56;101242.72;;;19.12;66.87
74065;BME280;62421;51.412;5.432;2023-06-10T02:48:23;101242.91;;;19.10;67.26
74065;BME280;62421;51.412;5.432;2023-06-10T02:50:49;101245.91;;;19.07;68.40
74065;BME280;62421;51.412;5.432;2023-06-10T02:53:14;101244.50;;;19.03;67.30
74065;BME280;62421;51.412;5.432;2023-06-10T02:55:40;101242.94;;;19.00;67.95
74065;BME280;62421;51.412;5.432;2023-06-10T02:58:06;101248.72;;;18.97;68.13
74065;BME280;62421;51.412;5.432;2023-06-10T03:00:32;101250.88;;;18.94;68.04
74065;BME280;62421;51.412;5.432;2023-06-10T03:02:58;101250.31;;;18.90;68.04
74065;BME280;62421;51.412;5.432;2023-06-10T03:05:25;101246.19;;;18.86;68.21
74065;BME280;62421;51.412;5.432;2023-06-10T03:07:51;101258.22;;;18.83;68.48
74065;BME280;62421;51.412;5.432;2023-06-10T03:10:16;101242.34;;;18.79;68.82
74065;BME280;62421;51.412;5.432;2023-06-10T03:12:41;101254.50;;;18.75;69.19
74065;BME280;62421;51.412;5.432;2023-06-10T03:15:07;101252.25;;;18.70;69.40
74065;BME280;62421;51.412;5.432;2023-06-10T03:17:32;101250.13;;;18.64;70.03
74065;BME280;62421;51.412;5.432;2023-06-10T03:19:58;101251.44;;;18.60;70.79
74065;BME280;62421;51.412;5.432;2023-06-10T03:22:23;101250.00;;;18.56;70.85
74065;BME280;62421;51.412;5.432;2023-06-10T03:24:48;101255.47;;;18.56;70.48
74065;BME280;62421;51.412;5.432;2023-06-10T03:27:15;101259.19;;;18.55;70.54
74065;BME280;62421;51.412;5.432;2023-06-10T03:29:41;101262.91;;;18.54;70.99
74065;BME280;62421;51.412;5.432;2023-06-10T03:32:07;101254.22;;;18.50;71.86
74065;BME280;62421;51.412;5.432;2023-06-10T03:34:33;101254.22;;;18.50;70.98
74065;BME280;62421;51.412;5.432;2023-06-10T03:36:59;101268.97;;;18.48;71.16
74065;BME280;62421;51.412;5.432;2023-06-10T03:39:25;101259.94;;;18.47;71.90
74065;BME280;62421;51.412;5.432;2023-06-10T03:41:53;101264.53;;;18.47;71.26
74065;BME280;62421;51.412;5.432;2023-06-10T03:44:19;101272.66;;;18.47;71.72
74065;BME280;62421;51.412;5.432;2023-06-10T03:46:45;101270.97;;;18.46;71.63
74065;BME280;62421;51.412;5.432;2023-06-10T03:49:10;101270.41;;;18.42;73.29
74065;BME280;62421;51.412;5.432;2023-06-10T03:51:36;101271.25;;;18.42;72.16
74065;BME280;62421;51.412;5.432;2023-06-10T03:54:02;101277.72;;;18.41;72.09
74065;BME280;62421;51.412;5.432;2023-06-10T03:56:27;101276.56;;;18.44;72.59
74065;BME280;62421;51.412;5.432;2023-06-10T03:58:54;101280.56;;;18.40;73.17
74065;BME280;62421;51.412;5.432;2023-06-10T04:01:20;101277.84;;;18.40;73.04
74065;BME280;62421;51.412;5.432;2023-06-10T04:03:49;101267.81;;;18.40;72.90
74065;BME280;62421;51.412;5.432;2023-06-10T04:06:16;101276.84;;;18.41;73.88
74065;BME280;62421;51.412;5.432;2023-06-10T04:08:42;101285.16;;;18.39;75.01
74065;BME280;62421;51.412;5.432;2023-06-10T04:11:08;101275.13;;;18.40;73.51
74065;BME280;62421;51.412;5.432;2023-06-10T04:13:33;101274.13;;;18.41;74.30
74065;BME280;62421;51.412;5.432;2023-06-10T04:15:59;101274.13;;;18.41;78.66
74065;BME280;62421;51.412;5.432;2023-06-10T04:18:24;101281.41;;;18.40;78.25
74065;BME280;62421;51.412;5.432;2023-06-10T04:20:50;101279.53;;;18.41;79.98
74065;BME280;62421;51.412;5.432;2023-06-10T04:23:16;101285.16;;;18.39;76.43
74065;BME280;62421;51.412;5.432;2023-06-10T04:25:41;101290.44;;;18.41;74.95
74065;BME280;62421;51.412;5.432;2023-06-10T04:28:06;101290.28;;;18.42;78.67
74065;BME280;62421;51.412;5.432;2023-06-10T04:30:32;101298.16;;;18.46;76.97
74065;BME280;62421;51.412;5.432;2023-06-10T04:32:57;101293.56;;;18.46;80.29
74065;BME280;62421;51.412;5.432;2023-06-10T04:35:23;101297.84;;;18.49;80.88
74065;BME280;62421;51.412;5.432;2023-06-10T04:37:48;101307.56;;;18.51;79.40
74065;BME280;62421;51.412;5.432;2023-06-10T04:40:14;101301.69;;;18.56;81.26
74065;BME280;62421;51.412;5.432;2023-06-10T04:42:41;101291.19;;;18.71;77.09
74065;BME280;62421;51.412;5.432;2023-06-10T04:45:07;101296.56;;;19.36;74.21
74065;BME280;62421;51.412;5.432;2023-06-10T04:47:32;101293.06;;;20.15;75.50
74065;BME280;62421;51.412;5.432;2023-06-10T04:50:01;101297.94;;;20.90;71.75
74065;BME280;62421;51.412;5.432;2023-06-10T04:52:27;101293.38;;;21.66;67.80
74065;BME280;62421;51.412;5.432;2023-06-10T04:54:53;101292.06;;;22.27;66.14
74065;BME280;62421;51.412;5.432;2023-06-10T04:57:19;101293.94;;;22.91;62.76
74065;BME280;62421;51.412;5.432;2023-06-10T04:59:45;101291.81;;;23.41;62.59
74065;BME280;62421;51.412;5.432;2023-06-10T05:02:11;101298.28;;;23.71;61.40
74065;BME280;62421;51.412;5.432;2023-06-10T05:04:36;101298.59;;;23.99;56.79
74065;BME280;62421;51.412;5.432;2023-06-10T05:07:01;101296.94;;;24.28;55.72
74065;BME280;62421;51.412;5.432;2023-06-10T05:09:27;101304.22;;;24.59;57.46
74065;BME280;62421;51.412;5.432;2023-06-10T05:11:52;101302.19;;;24.82;52.19
74065;BME280;62421;51.412;5.432;2023-06-10T05:14:19;101299.66;;;24.96;57.19
74065;BME280;62421;51.412;5.432;2023-06-10T05:16:46;101296.59;;;25.20;54.44
74065;BME280;62421;51.412;5.432;2023-06-10T05:19:11;101300.00;;;25.22;50.49
74065;BME280;62421;51.412;5.432;2023-06-10T05:21:37;101296.41;;;25.22;55.20
74065;BME280;62421;51.412;5.432;2023-06-10T05:24:02;101297.31;;;25.65;53.90
74065;BME280;62421;51.412;5.432;2023-06-10T05:26:28;101296.66;;;26.06;53.69
74065;BME280;62421;51.412;5.432;2023-06-10T05:28:54;101288.78;;;26.25;48.46
74065;BME280;62421;51.412;5.432;2023-06-10T05:31:19;101289.38;;;26.20;49.53
74065;BME280;62421;51.412;5.432;2023-06-10T05:33:45;101290.53;;;26.39;51.46
74065;BME280;62421;51.412;5.432;2023-06-10T05:36:10;101290.00;;;26.50;48.76
74065;BME280;62421;51.412;5.432;2023-06-10T05:38:35;101303.34;;;25.54;54.35
74065;BME280;62421;51.412;5.432;2023-06-10T05:41:01;101302.00;;;24.54;54.53
74065;BME280;62421;51.412;5.432;2023-06-10T05:43:26;101297.97;;;23.43;58.15
74065;BME280;62421;51.412;5.432;2023-06-10T05:45:52;101299.81;;;22.72;64.42
74065;BME280;62421;51.412;5.432;2023-06-10T05:48:17;101299.03;;;22.22;66.52
74065;BME280;62421;51.412;5.432;2023-06-10T05:50:45;101299.03;;;21.81;67.42
74065;BME280;62421;51.412;5.432;2023-06-10T05:53:16;101307.34;;;21.38;65.67
74065;BME280;62421;51.412;5.432;2023-06-10T05:55:45;101303.34;;;21.08;70.09
74065;BME280;62421;51.412;5.432;2023-06-10T05:58:11;101317.41;;;20.87;67.60
74065;BME280;62421;51.412;5.432;2023-06-10T06:00:38;101313.72;;;20.70;66.99
74065;BME280;62421;51.412;5.432;2023-06-10T06:03:06;101317.88;;;20.56;67.92
74065;BME280;62421;51.412;5.432;2023-06-10T06:05:32;101309.47;;;20.50;71.23
74065;BME280;62421;51.412;5.432;2023-06-10T06:08:04;101310.66;;;20.47;67.66
74065;BME280;62421;51.412;5.432;2023-06-10T06:10:29;101312.69;;;20.45;70.04
74065;BME280;62421;51.412;5.432;2023-06-10T06:12:55;101314.72;;;20.43;68.09
74065;BME280;62421;51.412;5.432;2023-06-10T06:15:20;101316.75;;;20.41;68.98
74065;BME280;62421;51.412;5.432;2023-06-10T06:17:46;101315.22;;;20.38;70.75
74065;BME280;62421;51.412;5.432;2023-06-10T06:20:11;101308.91;;;20.38;69.62
74065;BME280;62421;51.412;5.432;2023-06-10T06:22:37;101314.22;;;20.39;68.55
74065;BME280;62421;51.412;5.432;2023-06-10T06:25:02;101314.34;;;20.38;72.08
74065;BME280;62421;51.412;5.432;2023-06-10T06:27:28;101311.47;;;20.39;68.88
74065;BME280;62421;51.412;5.432;2023-06-10T06:29:53;101319.19;;;20.44;67.92
74065;BME280;62421;51.412;5.432;2023-06-10T06:32:19;101318.69;;;20.49;70.04
74065;BME280;62421;51.412;5.432;2023-06-10T06:34:44;101320.94;;;20.53;71.87
74065;BME280;62421;51.412;5.432;2023-06-10T06:37:10;101322.34;;;20.57;67.53
74065;BME280;62421;51.412;5.432;2023-06-10T06:39:35;101325.44;;;20.62;70.16
74065;BME280;62421;51.412;5.432;2023-06-10T06:42:00;101326.31;;;20.63;69.86
74065;BME280;62421;51.412;5.432;2023-06-10T06:44:26;101333.81;;;20.69;68.82
74065;BME280;62421;51.412;5.432;2023-06-10T06:46:51;101317.69;;;20.76;68.67
74065;BME280;62421;51.412;5.432;2023-06-10T06:49:16;101332.53;;;20.81;67.90
74065;BME280;62421;51.412;5.432;2023-06-10T06:51:42;101330.19;;;20.86;67.88
74065;BME280;62421;51.412;5.432;2023-06-10T06:54:07;101329.84;;;20.90;67.96
74065;BME280;62421;51.412;5.432;2023-06-10T06:56:32;101334.66;;;20.96;65.78
74065;BME280;62421;51.412;5.432;2023-06-10T06:58:58;101331.97;;;21.04;65.86
74065;BME280;62421;51.412;5.432;2023-06-10T07:01:23;101333.22;;;21.18;67.02
74065;BME280;62421;51.412;5.432;2023-06-10T07:03:49;101333.25;;;21.26;65.14
74065;BME280;62421;51.412;5.432;2023-06-10T07:06:14;101333.44;;;21.33;67.46
74065;BME280;62421;51.412;5.432;2023-06-10T07:08:40;101341.97;;;21.38;63.46
74065;BME280;62421;51.412;5.432;2023-06-10T07:11:05;101341.19;;;21.45;64.59
74065;BME280;62421;51.412;5.432;2023-06-10T07:13:30;101340.16;;;21.55;67.70
74065;BME280;62421;51.412;5.432;2023-06-10T07:15:56;101344.66;;;21.64;62.90
74065;BME280;62421;51.412;5.432;2023-06-10T07:18:21;101340.06;;;21.73;64.95
74065;BME280;62421;51.412;5.432;2023-06-10T07:20:46;101344.81;;;21.79;62.85
74065;BME280;62421;51.412;5.432;2023-06-10T07:23:12;101336.63;;;21.87;64.43
74065;BME280;62421;51.412;5.432;2023-06-10T07:25:37;101343.84;;;21.96;63.63
74065;BME280;62421;51.412;5.432;2023-06-10T07:28:03;101339.38;;;22.03;61.94
74065;BME280;62421;51.412;5.432;2023-06-10T07:30:28;101344.19;;;22.09;61.22
74065;BME280;62421;51.412;5.432;2023-06-10T07:32:53;101341.09;;;22.13;64.33
74065;BME280;62421;51.412;5.432;2023-06-10T07:35:19;101344.19;;;22.18;64.54
74065;BME280;62421;51.412;5.432;2023-06-10T07:37:44;101345.06;;;22.26;61.46
74065;BME280;62421;51.412;5.432;2023-06-10T07:40:10;101347.28;;;22.31;61.20
74065;BME280;62421;51.412;5.432;2023-06-10T07:42:36;101342.28;;;22.35;62.84
74065;BME280;62421;51.412;5.432;2023-06-10T07:45:02;101347.28;;;22.39;64.15
74065;BME280;62421;51.412;5.432;2023-06-10T07:47:28;101342.81;;;22.46;61.11
74065;BME280;62421;51.412;5.432;2023-06-10T07:49:54;101349.13;;;22.55;62.37
74065;BME280;62421;51.412;5.432;2023-06-10T07:52:19;101341.22;;;22.60;62.19
74065;BME280;62421;51.412;5.432;2023-06-10T07:54:44;101344.13;;;22.67;60.07
74065;BME280;62421;51.412;5.432;2023-06-10T07:57:10;101346.84;;;22.75;60.58
74065;BME280;62421;51.412;5.432;2023-06-10T07:59:35;101342.38;;;22.82;59.35
74065;BME280;62421;51.412;5.432;2023-06-10T08:02:00;101346.13;;;22.89;58.65
74065;BME280;62421;51.412;5.432;2023-06-10T08:04:26;101346.44;;;22.95;58.59
74065;BME280;62421;51.412;5.432;2023-06-10T08:06:51;101348.50;;;23.01;59.75
74065;BME280;62421;51.412;5.432;2023-06-10T08:09:16;101346.09;;;23.06;57.10
74065;BME280;62421;51.412;5.432;2023-06-10T08:11:43;101348.59;;;23.16;56.69
74065;BME280;62421;51.412;5.432;2023-06-10T08:14:09;101341.38;;;23.23;57.41
74065;BME280;62421;51.412;5.432;2023-06-10T08:16:34;101336.91;;;23.30;55.62
74065;BME280;62421;51.412;5.432;2023-06-10T08:18:59;101346.78;;;23.39;56.32
74065;BME280;62421;51.412;5.432;2023-06-10T08:21:25;101342.28;;;23.46;54.68
74065;BME280;62421;51.412;5.432;2023-06-10T08:23:53;101345.34;;;23.51;54.90
74065;BME280;62421;51.412;5.432;2023-06-10T08:26:19;101337.44;;;23.57;62.57
74065;BME280;62421;51.412;5.432;2023-06-10T08:28:44;101347.66;;;23.63;55.06
74065;BME280;62421;51.412;5.432;2023-06-10T08:31:10;101339.56;;;23.69;54.24
74065;BME280;62421;51.412;5.432;2023-06-10T08:33:35;101343.00;;;23.71;51.62
74065;BME280;62421;51.412;5.432;2023-06-10T08:36:01;101340.91;;;23.82;50.06
74065;BME280;62421;51.412;5.432;2023-06-10T08:38:26;101339.78;;;23.91;50.50
74065;BME280;62421;51.412;5.432;2023-06-10T08:40:56;101343.16;;;24.01;50.10
74065;BME280;62421;51.412;5.432;2023-06-10T08:43:44;101341.19;;;24.10;52.97
74065;BME280;62421;51.412;5.432;2023-06-10T08:46:10;101335.97;;;24.15;53.85
74065;BME280;62421;51.412;5.432;2023-06-10T08:48:42;101345.38;;;24.21;54.99
74065;BME280;62421;51.412;5.432;2023-06-10T08:51:09;101339.50;;;24.24;53.78
74065;BME280;62421;51.412;5.432;2023-06-10T08:53:37;101338.09;;;24.28;50.12
74065;BME280;62421;51.412;5.432;2023-06-10T08:56:04;101335.22;;;24.44;48.23
74065;BME280;62421;51.412;5.432;2023-06-10T08:58:32;101340.44;;;24.54;50.47
74065;BME280;62421;51.412;5.432;2023-06-10T09:00:58;101340.19;;;24.64;49.91
74065;BME280;62421;51.412;5.432;2023-06-10T09:03:25;101336.88;;;24.68;48.73
74065;BME280;62421;51.412;5.432;2023-06-10T09:05:51;101344.84;;;24.78;48.06
74065;BME280;62421;51.412;5.432;2023-06-10T09:08:16;101340.28;;;24.85;47.21
74065;BME280;62421;51.412;5.432;2023-06-10T09:10:42;101336.03;;;24.98;50.29
74065;BME280;62421;51.412;5.432;2023-06-10T09:13:07;101333.53;;;25.03;49.69
74065;BME280;62421;51.412;5.432;2023-06-10T09:15:33;101330.81;;;25.03;47.76
74065;BME280;62421;51.412;5.432;2023-06-10T09:17:59;101334.69;;;25.08;46.97
74065;BME280;62421;51.412;5.432;2023-06-10T09:20:25;101336.69;;;25.14;46.52
74065;BME280;62421;51.412;5.432;2023-06-10T09:22:51;101334.22;;;25.20;48.37
74065;BME280;62421;51.412;5.432;2023-06-10T09:25:16;101337.06;;;25.26;48.32
74065;BME280;62421;51.412;5.432;2023-06-10T09:27:45;101336.00;;;25.27;45.80
74065;BME280;62421;51.412;5.432;2023-06-10T09:30:34;101337.72;;;25.28;45.91
74065;BME280;62421;51.412;5.432;2023-06-10T09:33:10;101334.38;;;25.33;45.48
74065;BME280;62421;51.412;5.432;2023-06-10T09:35:35;101330.28;;;25.44;44.87
74065;BME280;62421;51.412;5.432;2023-06-10T09:38:01;101329.09;;;25.53;43.88
74065;BME280;62421;51.412;5.432;2023-06-10T09:40:28;101335.16;;;25.63;44.61
74065;BME280;62421;51.412;5.432;2023-06-10T09:42:58;101328.03;;;25.69;48.59
74065;BME280;62421;51.412;5.432;2023-06-10T09:45:29;101334.91;;;25.80;45.19
74065;BME280;62421;51.412;5.432;2023-06-10T09:47:55;101332.72;;;25.90;52.74
74065;BME280;62421;51.412;5.432;2023-06-10T09:50:21;101321.97;;;25.95;44.85
74065;BME280;62421;51.412;5.432;2023-06-10T09:52:47;101322.69;;;26.04;46.05
74065;BME280;62421;51.412;5.432;2023-06-10T09:55:16;101315.53;;;26.09;44.16
74065;BME280;62421;51.412;5.432;2023-06-10T09:57:42;101317.47;;;26.15;42.91
74065;BME280;62421;51.412;5.432;2023-06-10T10:00:10;101315.03;;;26.27;44.44
74065;BME280;62421;51.412;5.432;2023-06-10T10:02:52;101311.69;;;26.32;45.78
74065;BME280;62421;51.412;5.432;2023-06-10T10:05:20;101297.78;;;26.40;44.26
74065;BME280;62421;51.412;5.432;2023-06-10T10:07:46;101307.13;;;26.46;44.79
74065;BME280;62421;51.412;5.432;2023-06-10T10:10:14;101314.03;;;26.57;46.12
74065;BME280;62421;51.412;5.432;2023-06-10T10:12:41;101305.16;;;26.61;41.20
74065;BME280;62421;51.412;5.432;2023-06-10T10:15:09;101305.19;;;26.68;41.24
74065;BME280;62421;51.412;5.432;2023-06-10T10:17:40;101305.22;;;26.74;40.28
74065;BME280;62421;51.412;5.432;2023-06-10T10:20:08;101311.59;;;26.82;39.56
74065;BME280;62421;51.412;5.432;2023-06-10T10:22:39;101301.88;;;26.86;41.15
74065;BME280;62421;51.412;5.432;2023-06-10T10:25:10;101305.31;;;26.94;41.80
74065;BME280;62421;51.412;5.432;2023-06-10T10:27:43;101307.88;;;26.96;40.23
74065;BME280;62421;51.412;5.432;2023-06-10T10:30:11;101302.41;;;27.03;39.79
74065;BME280;62421;51.412;5.432;2023-06-10T10:33:05;101309.41;;;27.12;40.33
74065;BME280;62421;51.412;5.432;2023-06-10T10:35:33;101295.66;;;27.18;39.29
74065;BME280;62421;51.412;5.432;2023-06-10T10:37:58;101300.19;;;27.26;39.32
74065;BME280;62421;51.412;5.432;2023-06-10T10:40:25;101298.72;;;27.37;39.58
74065;BME280;62421;51.412;5.432;2023-06-10T10:42:55;101302.16;;;27.46;40.20
74065;BME280;62421;51.412;5.432;2023-06-10T10:45:21;101295.38;;;27.48;38.95
74065;BME280;62421;51.412;5.432;2023-06-10T10:47:52;101299.59;;;27.51;39.83
74065;BME280;62421;51.412;5.432;2023-06-10T10:50:19;101296.25;;;27.55;38.03
74065;BME280;62421;51.412;5.432;2023-06-10T10:52:55;101302.19;;;27.66;38.98
74065;BME280;62421;51.412;5.432;2023-06-10T10:55:21;101290.97;;;27.74;39.79
74065;BME280;62421;51.412;5.432;2023-06-10T11:00:33;101296.09;;;27.90;38.59
74065;BME280;62421;51.412;5.432;2023-06-10T11:03:17;101296.06;;;27.84;35.88
74065;BME280;62421;51.412;5.432;2023-06-10T11:05:44;101285.66;;;27.79;35.72
74065;BME280;62421;51.412;5.432;2023-06-10T11:08:13;101275.69;;;27.85;35.82
74065;BME280;62421;51.412;5.432;2023-06-10T11:10:41;101279.94;;;27.94;37.15
74065;BME280;62421;51.412;5.432;2023-06-10T11:15:33;101274.22;;;28.02;36.68
74065;BME280;62421;51.412;5.432;2023-06-10T11:18:12;101279.53;;;28.10;38.40
74065;BME280;62421;51.412;5.432;2023-06-10T11:28:41;101270.59;;;28.35;36.16
74065;BME280;62421;51.412;5.432;2023-06-10T11:31:07;101268.44;;;28.37;35.61
74065;BME280;62421;51.412;5.432;2023-06-10T11:33:32;101263.56;;;28.39;34.92
74065;BME280;62421;51.412;5.432;2023-06-10T11:35:58;101257.41;;;28.30;34.23
74065;BME280;62421;51.412;5.432;2023-06-10T11:38:24;101260.16;;;28.37;36.44
74065;BME280;62421;51.412;5.432;2023-06-10T11:40:50;101255.31;;;28.52;37.18
74065;BME280;62421;51.412;5.432;2023-06-10T11:43:19;101252.53;;;28.59;35.07
74065;BME280;62421;51.412;5.432;2023-06-10T11:45:45;101259.91;;;28.72;36.02
74065;BME280;62421;51.412;5.432;2023-06-10T11:48:10;101258.19;;;28.77;35.38
74065;BME280;62421;51.412;5.432;2023-06-10T11:50:37;101252.84;;;28.89;35.42
74065;BME280;62421;51.412;5.432;2023-06-10T11:53:02;101246.06;;;28.85;34.12
74065;BME280;62421;51.412;5.432;2023-06-10T11:55:45;101248.16;;;28.90;36.08
74065;BME280;62421;51.412;5.432;2023-06-10T11:58:21;101256.59;;;29.08;34.44
74065;BME280;62421;51.412;5.432;2023-06-10T12:00:56;101254.44;;;29.17;33.67
74065;BME280;62421;51.412;5.432;2023-06-10T12:03:23;101248.47;;;29.20;31.29
74065;BME280;62421;51.412;5.432;2023-06-10T12:06:02;101249.28;;;29.20;32.72
74065;BME280;62421;51.412;5.432;2023-06-10T12:08:29;101236.31;;;29.28;33.58
74065;BME280;62421;51.412;5.432;2023-06-10T12:10:55;101227.91;;;29.41;33.06
74065;BME280;62421;51.412;5.432;2023-06-10T12:13:22;101241.31;;;29.37;33.71
74065;BME280;62421;51.412;5.432;2023-06-10T12:15:48;101242.41;;;29.36;31.48
74065;BME280;62421;51.412;5.432;2023-06-10T12:18:17;101234.75;;;29.32;31.78
74065;BME280;62421;51.412;5.432;2023-06-10T12:20:44;101236.84;;;29.43;32.56
74065;BME280;62421;51.412;5.432;2023-06-10T12:23:10;101235.47;;;29.52;33.54
74065;BME280;62421;51.412;5.432;2023-06-10T12:25:35;101225.63;;;29.63;31.41
74065;BME280;62421;51.412;5.432;2023-06-10T12:28:04;101227.97;;;29.91;37.40
74065;BME280;62421;51.412;5.432;2023-06-10T12:30:31;101229.13;;;30.02;32.55
74065;BME280;62421;51.412;5.432;2023-06-10T12:32:57;101237.09;;;29.92;30.88
74065;BME280;62421;51.412;5.432;2023-06-10T12:35:26;101228.50;;;29.82;31.41
74065;BME280;62421;51.412;5.432;2023-06-10T12:38:05;101227.56;;;29.88;32.40
74065;BME280;62421;51.412;5.432;2023-06-10T12:40:37;101230.50;;;29.93;31.16
74065;BME280;62421;51.412;5.432;2023-06-10T12:43:04;101237.44;;;30.02;32.26
74065;BME280;62421;51.412;5.432;2023-06-10T12:45:34;101228.31;;;30.01;32.07
74065;BME280;62421;51.412;5.432;2023-06-10T12:50:35;101216.31;;;30.08;32.57
74065;BME280;62421;51.412;5.432;2023-06-10T12:53:02;101226.94;;;30.11;32.09
74065;BME280;62421;51.412;5.432;2023-06-10T12:55:28;101221.78;;;30.14;28.95
74065;BME280;62421;51.412;5.432;2023-06-10T12:57:54;101222.97;;;30.25;29.41
74065;BME280;62421;51.412;5.432;2023-06-10T13:00:20;101215.91;;;30.29;27.98
74065;BME280;62421;51.412;5.432;2023-06-10T13:02:46;101210.31;;;30.36;30.31
74065;BME280;62421;51.412;5.432;2023-06-10T13:05:11;101218.31;;;30.44;30.39
74065;BME280;62421;51.412;5.432;2023-06-10T13:07:36;101229.31;;;30.51;28.67